Meath Environmental Platform

Observations for Trim Market St

Time AQI Temp °C Hum % Pres Pa CO μg/m³ H₂S μg/m³ NO μg/m³ NO₂ μg/m³ O₃ μg/m³ SO₂ μg/m³ PM1 μg/m³ PM2.5 μg/m³ PM10 μg/m³
Sunday 16 August 2026
14:36 2 20.7 61 57,220 0 5 1.21 18.2 77.98 0 0 2.97 4.13
14:32 2 20.9 60 57,376 0 6.55 1.22 28.92 77.48 0 0 2.5 4.11
14:31 2 20.9 60 57,413 0 3.89 1.21 13.38 78.99 0 0 2.01 3.42
14:30 2 21 60 57,444 0 7.87 1.21 30.82 70.24 0 0 1.52 2.04
14:23 2 21.3 58 57,646 0 4.99 1.22 17.86 79.36 0 0 2.09 2.66
14:22 2 21.4 58 57,666 0 5.97 1.2 18.67 78.75 0 0.71 3.1 4.05
14:21 2 21.4 58 57,689 0 7.37 1.21 21.43 81.8 0 0 2.11 2.65
14:20 2 21.5 58 57,704 0.12 9.11 1.2 25.22 79.76 0 0.71 2.62 3.33
14:19 2 21.5 58 57,727 0.07 7.16 1.21 23.54 75.68 0 22.09 27.31 45.35
14:18 2 21.6 57 57,747 0.01 4.86 1.19 17.63 80.08 0 0 2.14 2.61
14:17 2 21.6 57 57,764 0.06 6.23 1.2 17.89 79.34 0 0 2.15 3.31
14:16 2 21.7 57 57,778 0 8.03 1.2 19.02 83.67 0 0 2.16 2.6
14:14 2 21.8 56 57,822 0 6.5 1.2 22.54 79.65 0 0.71 3.2 3.98
14:13 2 21.9 56 57,838 0 8.4 1.2 30.79 76.97 0 0.71 2.2 2.55
14:08 2 22 54 57,877 0 6.04 1.2 25.06 81.65 0 0.71 2.78 3.21
14:07 2 22 54 57,870 0 4.09 1.21 20.21 86.13 0 1.43 3.81 4.64
14:06 2 22 54 57,862 0 1.39 1.21 18.63 84.42 0 0.71 2.8 3.19
13:56 2 22.1 52 57,325 0 0.2 1.26 12.15 94.76 0 0.71 2.88 3.13
13:52 2 22.2 51 57,039 0 0.99 1.27 14.77 82.62 0 1.43 3.43 4.57
13:51 2 22.2 51 56,860 0 0 1.28 11.9 88.18 0 1.43 3.44 3.83